Time;durP1;ratioP1;P1;durP2;ratioP2;P2;SDS_P1;SDS_P2;PMS_P1;PMS_P2;Temp;Humidity;BMP_temperature;BMP_pressure;BME280_temperature;BME280_humidity;BME280_pressure;Samples;Min_cycle;Max_cycle;Signal;HPM_P1;HPM_P2
2022/06/16 00:00:08;;;;;;;1.63;1.53;;;21.50;63.60;22.10;96511.00;;;;5049457;28;20221;-85
2022/06/16 00:02:40;;;;;;;1.60;1.50;;;21.50;63.50;22.00;96515.00;;;;5043045;28;20205;-84
2022/06/16 00:05:12;;;;;;;1.40;1.30;;;21.50;63.50;22.00;96517.00;;;;5042078;28;20756;-85
2022/06/16 00:07:40;;;;;;;1.70;1.60;;;21.40;63.20;21.90;96514.00;;;;5041924;28;20212;-84
2022/06/16 00:10:09;;;;;;;1.60;1.50;;;21.40;63.30;21.90;96516.00;;;;5044959;28;20205;-84
2022/06/16 00:12:37;;;;;;;1.33;1.33;;;21.30;63.50;21.90;96515.00;;;;5044594;28;20568;-84
2022/06/16 00:15:11;;;;;;;3.53;1.60;;;21.30;63.50;21.80;96502.00;;;;5038605;28;20224;-84
2022/06/16 00:17:39;;;;;;;1.90;1.80;;;21.30;63.80;21.80;96511.00;;;;5047636;28;20643;-85
2022/06/16 00:20:09;;;;;;;1.73;1.63;;;21.20;63.90;21.80;96501.00;;;;5039176;28;20225;-84
2022/06/16 00:22:37;;;;;;;1.57;1.47;;;21.20;64.20;21.70;96509.00;;;;5041595;28;20271;-84
2022/06/16 00:25:07;;;;;;;2.07;1.97;;;21.20;64.50;21.70;96505.00;;;;5050360;28;20308;-84
2022/06/16 00:27:35;;;;;;;2.03;1.93;;;21.20;64.70;21.70;96507.00;;;;5045650;28;20201;-84
2022/06/16 00:30:03;;;;;;;1.80;1.70;;;21.10;64.70;21.60;96503.00;;;;5036918;28;20290;-85
2022/06/16 00:32:32;;;;;;;1.90;1.80;;;21.10;64.90;21.60;96509.00;;;;5047674;28;20284;-84
2022/06/16 00:34:59;;;;;;;2.20;1.73;;;21.10;64.90;21.60;96502.00;;;;5038713;28;20228;-84
2022/06/16 00:37:27;;;;;;;2.57;1.67;;;21.10;65.00;21.60;96502.00;;;;5050420;28;20205;-84
2022/06/16 00:39:54;;;;;;;2.03;1.93;;;21.10;65.10;21.60;96507.00;;;;5046632;28;20305;-84
2022/06/16 00:42:25;;;;;;;1.57;1.47;;;21.10;65.20;21.60;96507.00;;;;5047093;28;20730;-84
2022/06/16 00:44:56;;;;;;;1.80;1.70;;;21.10;65.20;21.60;96506.00;;;;5039055;28;20272;-84
2022/06/16 00:47:27;;;;;;;1.93;1.83;;;21.10;65.20;21.60;96502.00;;;;5042977;28;20728;-84
2022/06/16 00:50:04;;;;;;;2.17;1.97;;;21.10;65.20;21.60;96506.00;;;;5053087;28;20192;-84
2022/06/16 00:52:35;;;;;;;2.10;2.00;;;21.10;65.20;21.60;96507.00;;;;5045805;28;20636;-85
2022/06/16 00:55:10;;;;;;;1.87;1.67;;;21.10;65.10;21.60;96505.00;;;;5047847;28;20261;-84
2022/06/16 00:57:43;;;;;;;1.73;1.57;;;21.00;65.10;21.60;96495.00;;;;5051332;28;20282;-84
2022/06/16 01:00:16;;;;;;;1.87;1.77;;;21.00;65.30;21.50;96486.00;;;;5051977;28;20214;-84
2022/06/16 01:02:43;;;;;;;2.30;2.10;;;21.00;65.50;21.50;96489.00;;;;5054538;28;20633;-84
2022/06/16 01:05:11;;;;;;;1.70;1.60;;;21.00;65.60;21.50;96494.00;;;;5047352;28;20217;-85
2022/06/16 01:07:43;;;;;;;1.83;1.67;;;21.00;65.70;21.50;96496.00;;;;5048223;28;20277;-84
2022/06/16 01:10:14;;;;;;;2.13;1.93;;;21.00;65.70;21.50;96480.00;;;;5052886;28;20201;-84
2022/06/16 01:16:07;;;;;;;2.63;1.83;;;20.90;66.00;21.40;96489.00;;;;5049950;28;20847;-84
2022/06/16 01:18:47;;;;;;;1.80;1.70;;;20.90;65.60;21.40;96492.00;;;;5045897;28;20227;-84
2022/06/16 01:21:26;;;;;;;1.77;1.57;;;20.80;66.50;21.30;96492.00;;;;5057183;28;20196;-84
2022/06/16 01:24:46;;;;;;;2.27;1.60;;;20.80;65.90;21.30;96488.00;;;;5048732;28;20213;-85
2022/06/16 01:27:40;;;;;;;2.03;1.87;;;20.80;66.60;21.20;96483.00;;;;5046485;28;20200;-85
2022/06/16 01:30:13;;;;;;;1.97;1.77;;;20.70;66.70;21.20;96485.00;;;;5047476;28;20247;-85
2022/06/16 01:32:52;;;;;;;1.23;1.20;;;20.70;66.30;21.20;96472.00;;;;5049431;28;20258;-84
2022/06/16 01:35:34;;;;;;;5.20;1.63;;;20.70;66.60;21.20;96474.00;;;;5050774;28;20216;-85
2022/06/16 01:38:13;;;;;;;2.03;1.90;;;20.70;66.80;21.20;96478.00;;;;5048005;28;20257;-84
2022/06/16 01:40:48;;;;;;;1.70;1.40;;;20.70;67.10;21.20;96477.00;;;;5053784;28;20220;-84
2022/06/16 01:43:25;;;;;;;1.90;1.80;;;20.60;67.00;21.20;96477.00;;;;5052048;28;20204;-85
2022/06/16 01:46:00;;;;;;;2.47;1.67;;;20.60;67.10;21.10;96474.00;;;;5051386;28;20200;-85
2022/06/16 01:48:30;;;;;;;2.27;2.07;;;20.60;67.30;21.10;96477.00;;;;5052274;28;20672;-85
2022/06/16 01:51:06;;;;;;;2.10;1.90;;;20.60;67.40;21.10;96476.00;;;;5044059;28;20613;-85
2022/06/16 01:53:41;;;;;;;2.33;2.13;;;20.60;67.50;21.10;96476.00;;;;5043314;28;20657;-85
2022/06/16 01:56:18;;;;;;;1.57;1.53;;;20.60;67.70;21.10;96473.00;;;;5050516;28;20200;-84
2022/06/16 01:58:53;;;;;;;1.90;1.80;;;20.50;67.60;21.00;96488.00;;;;5044296;28;20216;-85
2022/06/16 02:01:27;;;;;;;1.77;1.67;;;20.50;67.50;21.00;96490.00;;;;5048275;28;20249;-85
2022/06/16 02:04:02;;;;;;;2.03;1.90;;;20.50;67.50;21.00;96492.00;;;;5041199;28;20216;-84
2022/06/16 02:06:33;;;;;;;2.20;1.90;;;20.50;67.50;21.00;96496.00;;;;5050267;28;20201;-85
2022/06/16 02:09:07;;;;;;;1.80;1.70;;;20.50;67.50;21.00;96496.00;;;;5052104;28;20223;-85
2022/06/16 02:11:37;;;;;;;1.87;1.77;;;20.50;67.70;21.00;96492.00;;;;5044331;28;20604;-85
2022/06/16 02:14:19;;;;;;;1.70;1.60;;;20.50;67.80;21.00;96475.00;;;;5052202;28;20312;-85
2022/06/16 02:16:50;;;;;;;2.10;2.00;;;20.50;68.40;21.00;96476.00;;;;5040748;28;20276;-85
2022/06/16 02:19:22;;;;;;;1.90;1.80;;;20.50;68.30;20.90;96490.00;;;;5050547;28;20286;-85
2022/06/16 02:21:52;;;;;;;2.50;1.90;;;20.40;68.30;20.90;96478.00;;;;5044180;28;20733;-85
2022/06/16 02:24:23;;;;;;;2.80;2.03;;;20.40;68.30;20.90;96485.00;;;;5051280;28;20303;-85
2022/06/16 02:26:55;;;;;;;2.40;2.03;;;20.40;68.30;21.00;96478.00;;;;5046962;28;20201;-81
2022/06/16 02:29:29;;;;;;;2.27;2.17;;;20.40;68.50;21.00;96483.00;;;;5043457;28;20201;-84
2022/06/16 02:32:15;;;;;;;2.60;2.10;;;20.40;68.60;21.00;96478.00;;;;5037208;28;20226;-84
2022/06/16 02:35:09;;;;;;;2.27;2.10;;;20.50;69.00;21.00;96487.00;;;;5040649;28;20231;-85
2022/06/16 02:38:01;;;;;;;3.67;1.73;;;20.50;69.00;21.00;96486.00;;;;5048798;28;20204;-85
2022/06/16 02:41:10;;;;;;;1.93;1.83;;;20.50;69.00;21.00;96483.00;;;;5053500;28;20751;-85
2022/06/16 02:44:05;;;;;;;3.00;2.10;;;20.50;69.00;21.00;96485.00;;;;5043149;28;20773;-85
2022/06/16 02:46:52;;;;;;;1.93;1.83;;;20.50;69.00;21.00;96475.00;;;;5041496;28;20210;-85
2022/06/16 02:49:36;;;;;;;2.20;2.00;;;20.50;68.90;21.00;96473.00;;;;5042311;28;20547;-85
2022/06/16 02:52:17;;;;;;;3.00;2.10;;;20.40;69.00;20.90;96474.00;;;;5036552;28;20250;-85
2022/06/16 02:54:55;;;;;;;1.70;1.60;;;20.40;69.10;20.90;96483.00;;;;5049240;28;21536;-85
2022/06/16 02:57:34;;;;;;;2.10;2.00;;;20.40;68.90;20.90;96468.00;;;;5048639;28;20563;-85
2022/06/16 03:00:07;;;;;;;2.13;2.03;;;20.40;69.10;20.80;96462.00;;;;5039280;28;20310;-84
2022/06/16 03:02:37;;;;;;;2.40;2.30;;;20.40;69.10;20.80;96452.00;;;;5041010;28;20266;-85
2022/06/16 03:05:08;;;;;;;2.10;2.00;;;20.30;69.00;20.80;96448.00;;;;5044782;28;20215;-85
2022/06/16 03:07:36;;;;;;;2.00;1.87;;;20.30;69.00;20.80;96445.00;;;;5048504;28;20234;-85
2022/06/16 03:10:06;;;;;;;2.20;2.00;;;20.30;68.90;20.80;96444.00;;;;5046020;28;20284;-85
2022/06/16 03:12:34;;;;;;;2.67;2.47;;;20.30;69.00;20.70;96435.00;;;;5041729;28;20232;-85
2022/06/16 03:15:01;;;;;;;2.20;2.00;;;20.30;69.10;20.70;96443.00;;;;5041214;28;20274;-85
2022/06/16 03:17:29;;;;;;;2.20;2.10;;;20.20;69.20;20.70;96436.00;;;;5050513;28;20231;-85
2022/06/16 03:19:56;;;;;;;2.17;2.07;;;20.20;69.40;20.70;96433.00;;;;5046351;28;20271;-85
2022/06/16 03:22:25;;;;;;;2.23;2.13;;;20.20;69.50;20.70;96435.00;;;;5038430;28;20746;-84
2022/06/16 03:24:52;;;;;;;3.73;2.50;;;20.20;69.60;20.60;96433.00;;;;5043081;28;20223;-84
2022/06/16 03:27:19;;;;;;;2.70;2.13;;;20.20;69.70;20.60;96449.00;;;;5049596;28;20290;-84
2022/06/16 03:29:46;;;;;;;2.00;1.70;;;20.10;69.80;20.60;96454.00;;;;5045823;28;20288;-85
2022/06/16 03:32:13;;;;;;;2.17;2.07;;;20.10;69.90;20.60;96459.00;;;;5045805;28;20626;-85
2022/06/16 03:34:41;;;;;;;2.30;2.20;;;20.10;69.90;20.60;96455.00;;;;5046839;28;20220;-84
2022/06/16 03:37:09;;;;;;;3.53;2.10;;;20.10;70.00;20.60;96460.00;;;;5042542;28;20274;-84
2022/06/16 03:39:38;;;;;;;2.20;2.10;;;20.00;70.10;20.60;96455.00;;;;5041250;28;20253;-85
2022/06/16 03:42:06;;;;;;;2.50;2.30;;;20.00;70.30;20.60;96451.00;;;;5042686;28;20197;-84
2022/06/16 03:44:33;;;;;;;3.17;2.13;;;20.00;70.40;20.50;96448.00;;;;5044980;28;20264;-84
2022/06/16 03:47:00;;;;;;;4.60;2.30;;;20.00;70.50;20.50;96449.00;;;;5050480;28;20274;-85
2022/06/16 03:49:28;;;;;;;2.93;2.20;;;20.00;70.60;20.50;96449.00;;;;5042255;28;20244;-84
2022/06/16 03:51:55;;;;;;;2.23;2.10;;;20.00;70.80;20.50;96452.00;;;;5044112;28;20201;-84
2022/06/16 03:54:22;;;;;;;3.73;2.50;;;20.00;70.80;20.50;96446.00;;;;5044638;28;20714;-85
2022/06/16 03:56:51;;;;;;;2.40;2.20;;;20.00;70.80;20.50;96453.00;;;;5051079;28;20696;-85
2022/06/16 03:59:21;;;;;;;2.40;2.10;;;20.00;70.90;20.50;96445.00;;;;5044529;28;20303;-84
2022/06/16 04:01:49;;;;;;;2.57;2.17;;;20.00;70.80;20.50;96447.00;;;;5044419;28;20197;-84
2022/06/16 04:04:15;;;;;;;2.13;1.93;;;20.00;70.90;20.50;96443.00;;;;5051574;28;20231;-84
2022/06/16 04:06:42;;;;;;;2.60;2.40;;;20.00;70.90;20.50;96443.00;;;;5051670;28;20244;-84
2022/06/16 04:09:09;;;;;;;2.03;1.90;;;19.90;70.80;20.50;96441.00;;;;5051933;28;20196;-85
2022/06/16 04:11:36;;;;;;;2.20;2.10;;;19.90;70.80;20.50;96451.00;;;;5050723;28;20262;-84
2022/06/16 04:14:12;;;;;;;2.60;2.40;;;19.90;70.90;20.50;96462.00;;;;5072593;22;20281;-88
2022/06/16 04:16:43;;;;;;;2.30;2.10;;;19.90;71.30;20.50;96452.00;;;;5091155;28;20652;-88
2022/06/16 04:19:13;;;;;;;2.20;2.10;;;19.90;71.30;20.50;96465.00;;;;5074989;28;20219;-87
2022/06/16 04:21:43;;;;;;;2.70;2.40;;;19.90;71.50;20.50;96462.00;;;;5088570;28;20227;-87
2022/06/16 04:24:14;;;;;;;2.10;1.90;;;19.90;71.70;20.50;96471.00;;;;5076017;28;20291;-87
2022/06/16 04:26:41;;;;;;;2.13;1.90;;;19.90;71.90;20.50;96465.00;;;;5085430;28;20590;-87
2022/06/16 04:29:13;;;;;;;2.70;2.50;;;19.90;72.00;20.60;96475.00;;;;5087232;28;20216;-88
2022/06/16 04:31:44;;;;;;;2.80;2.60;;;20.00;72.50;20.60;96466.00;;;;5079754;28;20200;-88
2022/06/16 04:34:18;;;;;;;3.03;2.83;;;20.00;72.50;20.70;96460.00;;;;5084236;28;20193;-88
2022/06/16 04:36:45;;;;;;;3.10;2.90;;;20.00;73.00;20.80;96463.00;;;;5091831;28;20200;-85
2022/06/16 04:39:20;;;;;;;3.17;2.90;;;20.10;73.10;20.80;96455.00;;;;5084473;28;20211;-86
2022/06/16 04:41:57;;;;;;;2.97;2.73;;;20.10;73.50;20.90;96452.00;;;;5084872;28;20668;-86
2022/06/16 04:44:39;;;;;;;3.20;3.00;;;20.20;73.70;21.00;96454.00;;;;5076316;28;20258;-87
2022/06/16 04:47:08;;;;;;;3.07;2.87;;;20.30;73.70;21.00;96453.00;;;;5072962;28;20198;-86
2022/06/16 04:49:38;;;;;;;3.47;3.17;;;20.30;73.60;21.10;96457.00;;;;5076111;28;20711;-86
2022/06/16 04:52:11;;;;;;;3.00;2.80;;;20.40;73.70;21.10;96463.00;;;;5075728;28;20256;-86
2022/06/16 04:54:48;;;;;;;5.10;2.80;;;20.40;73.70;21.20;96462.00;;;;5076324;28;20235;-86
2022/06/16 04:57:26;;;;;;;3.20;3.00;;;20.50;73.90;21.20;96457.00;;;;5096354;28;20189;-85
2022/06/16 05:00:13;;;;;;;3.87;3.00;;;20.50;73.70;21.30;96456.00;;;;5055409;28;20209;-86
2022/06/16 05:02:43;;;;;;;3.03;2.83;;;20.60;73.80;21.40;96455.00;;;;5055961;28;20241;-87
2022/06/16 05:05:18;;;;;;;3.70;3.30;;;20.60;73.40;21.40;96459.00;;;;5086433;28;20238;-86
2022/06/16 05:07:48;;;;;;;3.40;3.20;;;20.70;73.40;21.40;96460.00;;;;5076455;28;20232;-87
2022/06/16 05:10:23;;;;;;;7.87;3.20;;;20.70;73.30;21.50;96460.00;;;;5082418;28;20207;-87
2022/06/16 05:13:02;;;;;;;3.63;3.33;;;20.80;73.20;21.60;96462.00;;;;5055650;28;20203;-87
2022/06/16 05:15:40;;;;;;;3.60;3.30;;;20.90;73.30;21.60;96474.00;;;;5074477;28;20286;-87
2022/06/16 05:18:14;;;;;;;3.30;3.10;;;20.90;73.30;21.70;96475.00;;;;5083150;28;20216;-86
2022/06/16 05:20:45;;;;;;;3.90;3.37;;;20.90;73.10;21.70;96475.00;;;;5077338;28;20225;-87
2022/06/16 05:23:13;;;;;;;3.40;3.20;;;21.00;73.00;21.80;96464.00;;;;5071326;28;20194;-87
2022/06/16 05:25:41;;;;;;;4.00;3.70;;;21.10;73.00;21.80;96470.00;;;;5079617;28;20620;-88
2022/06/16 05:28:15;;;;;;;3.30;3.10;;;21.10;73.10;21.90;96477.00;;;;5093880;28;20230;-87
2022/06/16 05:30:44;;;;;;;3.57;3.30;;;21.20;73.30;22.00;96487.00;;;;5081695;28;20228;-86
2022/06/16 05:33:12;;;;;;;3.40;3.13;;;21.30;73.40;22.10;96479.00;;;;5075147;28;20200;-87
2022/06/16 05:35:39;;;;;;;3.67;3.23;;;21.30;73.30;22.20;96488.00;;;;5081375;28;20210;-89
2022/06/16 05:38:06;;;;;;;3.97;3.60;;;21.40;73.10;22.30;96479.00;;;;5087096;28;20341;-87
2022/06/16 05:40:34;;;;;;;3.83;3.60;;;21.50;73.20;22.40;96483.00;;;;5094187;28;20580;-87
2022/06/16 05:43:01;;;;;;;3.97;3.63;;;21.50;73.10;22.40;96480.00;;;;5094338;28;20198;-87
2022/06/16 05:45:29;;;;;;;3.57;3.27;;;21.60;72.90;22.50;96489.00;;;;5085878;28;20231;-86
2022/06/16 05:48:00;;;;;;;3.90;3.40;;;21.70;72.80;22.60;96492.00;;;;5091286;28;20211;-86
2022/06/16 05:50:33;;;;;;;3.80;3.50;;;21.70;72.70;22.60;96504.00;;;;5071560;28;20200;-87
2022/06/16 05:53:16;;;;;;;3.90;3.60;;;21.80;72.40;22.70;96513.00;;;;5088806;28;20598;-86
2022/06/16 05:55:46;;;;;;;3.97;3.50;;;21.90;72.30;22.70;96508.00;;;;5074249;28;20199;-87
2022/06/16 05:58:17;;;;;;;4.13;3.80;;;21.90;72.10;22.70;96509.00;;;;5094093;28;20706;-87
2022/06/16 06:00:47;;;;;;;3.30;3.10;;;22.00;72.00;22.80;96506.00;;;;5070413;28;20255;-87
2022/06/16 06:03:15;;;;;;;3.43;3.13;;;22.00;72.00;22.80;96522.00;;;;5067468;28;20194;-87
2022/06/16 06:05:45;;;;;;;3.63;3.27;;;22.10;72.20;22.90;96526.00;;;;5085905;28;20623;-86
2022/06/16 06:16:35;;;;;;;3.67;3.37;;;22.40;72.00;23.20;96515.00;;;;5094231;28;20240;-88
2022/06/16 06:22:02;;;;;;;2.80;2.60;;;22.50;72.30;23.40;96527.00;;;;5094048;28;20207;-86
2022/06/16 06:24:33;;;;;;;3.57;2.67;;;22.60;72.30;23.60;96518.00;;;;5090323;28;20202;-87
2022/06/16 06:27:05;;;;;;;2.53;2.33;;;22.70;72.40;23.70;96519.00;;;;5086741;28;20645;-87
2022/06/16 06:29:32;;;;;;;5.23;2.67;;;22.80;72.20;23.80;96516.00;;;;5094137;28;20277;-88
2022/06/16 06:32:01;;;;;;;2.93;2.73;;;23.00;72.10;24.00;96513.00;;;;5074168;28;20216;-87
2022/06/16 06:34:30;;;;;;;3.13;2.50;;;23.10;71.80;24.10;96505.00;;;;5073684;28;20219;-86
2022/06/16 06:36:57;;;;;;;2.27;2.17;;;23.20;71.80;24.20;96506.00;;;;5084553;22;20239;-87
2022/06/16 06:39:25;;;;;;;2.63;2.17;;;23.30;71.60;24.30;96510.00;;;;5030479;28;20199;-88
2022/06/16 06:41:52;;;;;;;2.73;2.23;;;23.40;71.50;24.40;96506.00;;;;5031913;28;20228;-88
2022/06/16 06:44:20;;;;;;;2.97;2.50;;;23.50;71.50;24.50;96511.00;;;;5032369;28;20305;-86
2022/06/16 06:46:47;;;;;;;2.87;2.67;;;23.60;71.60;24.60;96510.00;;;;5031170;28;20216;-88
2022/06/16 06:49:14;;;;;;;4.90;2.80;;;23.70;71.20;24.70;96512.00;;;;5031822;28;20220;-87
2022/06/16 06:51:43;;;;;;;2.87;2.50;;;23.80;70.80;24.80;96514.00;;;;5032179;28;20208;-87
2022/06/16 06:54:10;;;;;;;3.50;2.43;;;23.90;70.50;24.90;96511.00;;;;5032364;28;20233;-87
2022/06/16 06:56:37;;;;;;;2.60;2.40;;;24.00;70.50;25.00;96503.00;;;;5028951;28;20229;-88
2022/06/16 06:59:10;;;;;;;2.77;2.57;;;24.10;70.30;25.10;96517.00;;;;5032536;28;20813;-87
2022/06/16 07:01:37;;;;;;;2.53;2.33;;;24.20;70.10;25.30;96510.00;;;;5032579;28;20772;-87
2022/06/16 07:04:05;;;;;;;2.70;2.50;;;24.30;69.90;25.40;96516.00;;;;5031257;28;20266;-87
2022/06/16 07:06:33;;;;;;;3.10;2.60;;;24.40;70.20;25.60;96515.00;;;;5034406;28;20240;-88
2022/06/16 07:09:02;;;;;;;3.70;2.90;;;24.60;70.20;25.90;96514.00;;;;5029910;28;20288;-87
2022/06/16 07:11:29;;;;;;;4.13;3.13;;;24.70;70.40;26.10;96512.00;;;;5032179;28;20197;-87
2022/06/16 07:13:58;;;;;;;3.43;2.93;;;24.90;70.10;26.30;96510.00;;;;5032306;28;20212;-88
2022/06/16 07:16:25;;;;;;;2.80;2.50;;;25.10;69.60;26.50;96526.00;;;;5029951;28;20247;-87
2022/06/16 07:18:52;;;;;;;3.40;2.50;;;25.30;68.80;26.70;96520.00;;;;5030979;28;20663;-88
2022/06/16 07:21:20;;;;;;;2.83;2.60;;;25.50;68.90;26.90;96517.00;;;;5031665;28;20229;-87
2022/06/16 07:23:47;;;;;;;2.80;2.60;;;25.70;68.50;27.10;96518.00;;;;5032509;28;20236;-88
2022/06/16 07:26:15;;;;;;;4.43;2.70;;;25.80;67.40;27.30;96537.00;;;;5035631;28;20808;-88
2022/06/16 07:28:42;;;;;;;3.50;2.27;;;26.00;66.70;27.40;96535.00;;;;5030266;28;20190;-87
2022/06/16 07:31:10;;;;;;;4.13;2.27;;;26.20;67.00;27.50;96532.00;;;;5030433;28;20272;-87
2022/06/16 07:33:37;;;;;;;2.90;2.10;;;26.30;67.00;27.60;96538.00;;;;5031868;28;20288;-88
2022/06/16 07:36:05;;;;;;;2.83;2.63;;;26.50;66.80;27.70;96533.00;;;;5031581;28;20225;-88
2022/06/16 07:38:32;;;;;;;2.97;2.53;;;26.50;66.00;27.90;96541.00;;;;5031906;28;20343;-88
2022/06/16 07:43:42;;;;;;;2.70;2.50;;;26.80;66.20;28.30;96547.00;;;;5030035;28;20283;-88
2022/06/16 07:46:09;;;;;;;3.72;2.53;;;27.00;65.00;28.40;96544.00;;;;5030848;28;20244;-87
2022/06/16 07:48:37;;;;;;;2.83;2.20;;;27.10;65.00;28.60;96544.00;;;;5031874;28;20227;-87
2022/06/16 07:51:04;;;;;;;4.38;2.25;;;27.30;64.90;28.80;96545.00;;;;5033277;28;20292;-86
2022/06/16 07:53:31;;;;;;;3.20;2.90;;;27.50;63.50;29.00;96539.00;;;;5051648;28;20284;-88
2022/06/16 07:55:59;;;;;;;3.22;2.25;;;27.60;62.70;29.20;96540.00;;;;5051532;28;20255;-86
2022/06/16 07:58:30;;;;;;;4.57;2.90;;;27.80;63.00;29.30;96531.00;;;;5048401;28;20201;-86
2022/06/16 08:01:00;;;;;;;2.60;2.40;;;27.90;62.80;29.50;96538.00;;;;5030139;28;20224;-87
2022/06/16 08:03:29;;;;;;;4.78;2.58;;;28.10;62.60;29.70;96533.00;;;;5035008;28;20201;-87
2022/06/16 08:05:58;;;;;;;2.58;2.38;;;28.20;62.20;29.80;96541.00;;;;5039456;28;20240;-87
2022/06/16 08:08:27;;;;;;;2.40;2.20;;;28.40;62.20;30.00;96539.00;;;;5037374;28;20201;-88
2022/06/16 08:10:55;;;;;;;3.50;2.78;;;28.60;61.30;30.30;96536.00;;;;5045731;28;20209;-88
2022/06/16 08:13:26;;;;;;;2.58;2.38;;;28.80;61.30;30.50;96540.00;;;;5044549;28;20243;-87
2022/06/16 08:15:55;;;;;;;2.83;2.58;;;28.90;61.20;30.70;96533.00;;;;5034005;28;20252;-87
2022/06/16 08:18:26;;;;;;;2.78;2.58;;;29.10;60.30;30.80;96530.00;;;;5033490;28;20209;-87
2022/06/16 08:20:54;;;;;;;2.55;2.35;;;29.30;59.60;30.90;96540.00;;;;5034768;28;20221;-87
2022/06/16 08:23:21;;;;;;;3.53;3.22;;;29.40;59.50;31.10;96540.00;;;;5035740;28;20221;-87
2022/06/16 08:25:50;;;;;;;4.00;2.58;;;29.50;58.90;31.10;96541.00;;;;5048311;28;20216;-86
2022/06/16 08:28:20;;;;;;;4.75;2.45;;;29.60;58.70;31.10;96540.00;;;;5044183;28;20274;-87
2022/06/16 08:30:49;;;;;;;2.13;2.03;;;29.70;58.50;31.20;96545.00;;;;5033092;28;20693;-87
2022/06/16 08:33:18;;;;;;;3.25;2.15;;;29.70;58.80;31.30;96552.00;;;;5033045;28;20275;-87
2022/06/16 08:35:49;;;;;;;2.67;2.40;;;29.80;59.10;31.30;96546.00;;;;5034502;28;20214;-87
2022/06/16 08:38:16;;;;;;;3.25;2.35;;;29.90;58.00;31.40;96551.00;;;;5035207;28;20221;-87
2022/06/16 08:40:47;;;;;;;2.63;2.42;;;29.90;58.10;31.50;96559.00;;;;5044416;28;20283;-87
2022/06/16 08:43:28;;;;;;;3.22;2.28;;;30.00;57.30;31.50;96560.00;;;;5043482;28;20273;-87
2022/06/16 08:45:59;;;;;;;3.83;2.35;;;30.00;57.00;31.50;96567.00;;;;5034756;28;20236;-88
2022/06/16 08:48:39;;;;;;;3.72;2.50;;;30.10;57.50;31.50;96560.00;;;;5034669;28;20217;-87
2022/06/16 08:51:17;;;;;;;2.08;1.98;;;30.10;57.60;31.70;96572.00;;;;5038372;28;20728;-87
2022/06/16 08:54:08;;;;;;;2.08;1.98;;;30.20;57.60;31.80;96567.00;;;;5026919;28;20190;-87
2022/06/16 08:56:45;;;;;;;2.25;2.05;;;30.30;57.40;31.80;96567.00;;;;5037966;28;20232;-87
2022/06/16 08:59:26;;;;;;;2.08;1.98;;;30.30;57.00;31.90;96571.00;;;;5031638;28;20267;-87
2022/06/16 09:02:01;;;;;;;2.05;1.90;;;30.40;56.30;31.90;96571.00;;;;5026159;28;20307;-87
2022/06/16 09:04:34;;;;;;;2.20;2.08;;;30.40;56.30;31.90;96565.00;;;;5034563;28;20197;-87
2022/06/16 09:07:27;;;;;;;2.55;2.10;;;30.50;56.10;31.90;96574.00;;;;5034496;28;20575;-87
2022/06/16 09:10:17;;;;;;;2.00;1.90;;;30.50;55.00;32.00;96582.00;;;;5034893;28;20233;-87
2022/06/16 09:13:28;;;;;;;2.45;2.25;;;30.60;55.40;32.10;96596.00;;;;5054969;28;20204;-87
2022/06/16 09:16:09;;;;;;;2.10;1.95;;;30.60;54.00;32.10;96603.00;;;;5034356;28;20295;-88
2022/06/16 09:19:17;;;;;;;2.38;2.17;;;30.70;55.10;32.00;96619.00;;;;5033654;28;20721;-87
2022/06/16 09:21:55;;;;;;;2.50;2.00;;;30.70;54.70;31.80;96626.00;;;;5033403;28;20706;-87
2022/06/16 09:24:48;;;;;;;3.25;1.92;;;30.60;54.60;31.60;96640.00;;;;5035001;28;20232;-88
2022/06/16 09:27:21;;;;;;;2.63;2.30;;;30.60;54.40;31.50;96625.00;;;;5034805;28;20700;-87
2022/06/16 09:29:55;;;;;;;2.60;2.40;;;30.50;55.20;31.30;96614.00;;;;5034487;28;20274;-87
2022/06/16 09:32:32;;;;;;;2.42;2.20;;;30.40;56.10;31.10;96626.00;;;;5048047;28;20662;-88
2022/06/16 09:35:07;;;;;;;2.75;2.20;;;30.20;56.40;31.00;96637.00;;;;5043088;28;20200;-88
2022/06/16 09:37:42;;;;;;;2.40;2.15;;;30.10;58.20;31.10;96637.00;;;;5034132;28;20235;-88
2022/06/16 09:40:19;;;;;;;4.05;2.22;;;30.00;57.90;31.20;96624.00;;;;5034222;28;20209;-87
2022/06/16 09:42:55;;;;;;;2.33;2.13;;;30.00;58.30;31.20;96619.00;;;;5035841;28;20263;-87
2022/06/16 09:45:32;;;;;;;3.97;2.25;;;30.00;58.20;31.20;96624.00;;;;5038981;28;20665;-87
2022/06/16 09:48:09;;;;;;;2.85;2.65;;;30.00;58.00;31.30;96624.00;;;;5032154;28;20225;-87
2022/06/16 09:50:47;;;;;;;3.17;2.22;;;30.00;57.60;31.30;96630.00;;;;5032814;28;20217;-88
2022/06/16 09:53:22;;;;;;;2.20;1.95;;;30.00;57.10;31.30;96641.00;;;;5035652;28;20201;-87
2022/06/16 09:55:57;;;;;;;2.17;1.98;;;30.00;57.70;31.20;96646.00;;;;5042884;28;20279;-88
2022/06/16 09:58:32;;;;;;;2.20;2.00;;;30.00;56.70;31.20;96644.00;;;;5034363;28;20236;-88
2022/06/16 10:01:07;;;;;;;2.22;2.00;;;30.00;56.90;31.10;96646.00;;;;5032805;28;20233;-88
2022/06/16 10:03:41;;;;;;;2.15;2.00;;;29.90;56.70;31.20;96649.00;;;;5032270;28;20626;-88
2022/06/16 10:06:24;;;;;;;1.90;1.80;;;29.90;57.20;31.20;96657.00;;;;5032759;28;20334;-87
2022/06/16 10:09:05;;;;;;;3.45;2.40;;;29.90;57.90;31.30;96670.00;;;;5035855;28;20193;-88
2022/06/16 10:11:55;;;;;;;2.03;1.83;;;29.90;57.90;31.30;96687.00;;;;5030767;28;20208;-87
2022/06/16 10:14:35;;;;;;;2.35;2.13;;;30.00;57.90;31.20;96696.00;;;;5030826;28;20201;-87
2022/06/16 10:17:08;;;;;;;1.92;1.83;;;29.90;56.80;31.10;96697.00;;;;5031241;28;20244;-87
2022/06/16 10:19:40;;;;;;;3.22;2.38;;;29.90;57.00;30.90;96682.00;;;;5031948;28;20193;-87
2022/06/16 10:22:09;;;;;;;2.50;2.35;;;29.80;56.60;30.80;96682.00;;;;5031001;28;20250;-87
2022/06/16 10:24:42;;;;;;;2.53;2.33;;;29.80;56.70;30.60;96673.00;;;;5037291;28;20255;-87
2022/06/16 10:27:15;;;;;;;2.22;2.13;;;29.70;57.30;30.50;96681.00;;;;5054660;28;20307;-88
2022/06/16 10:29:54;;;;;;;2.60;2.40;;;29.60;58.10;30.50;96664.00;;;;5052155;28;20266;-87
2022/06/16 10:32:38;;;;;;;2.30;2.10;;;29.50;58.70;30.50;96667.00;;;;5034714;28;20201;-87
2022/06/16 10:35:08;;;;;;;3.22;2.45;;;29.50;59.60;30.60;96659.00;;;;5025497;28;20653;-87
2022/06/16 10:37:42;;;;;;;2.83;2.20;;;29.50;60.10;30.80;96662.00;;;;5035681;28;20225;-87
2022/06/16 10:40:15;;;;;;;2.95;2.30;;;29.70;60.20;31.00;96669.00;;;;5038262;28;20220;-86
2022/06/16 10:42:47;;;;;;;2.40;2.20;;;29.90;60.20;31.20;96665.00;;;;5032655;28;20229;-87
2022/06/16 10:45:23;;;;;;;1.90;1.80;;;30.10;60.10;31.40;96672.00;;;;5030240;28;20288;-85
2022/06/16 10:47:56;;;;;;;3.97;2.10;;;30.30;58.70;31.60;96678.00;;;;5037134;28;20232;-86
2022/06/16 10:50:31;;;;;;;2.08;1.98;;;30.50;57.40;31.90;96670.00;;;;5035797;28;20289;-86
2022/06/16 10:53:05;;;;;;;2.08;1.98;;;30.80;57.30;32.10;96667.00;;;;5030513;28;20624;-87
2022/06/16 10:55:43;;;;;;;1.83;1.73;;;31.00;56.40;32.30;96675.00;;;;5036978;28;20251;-86
2022/06/16 10:58:23;;;;;;;1.95;1.85;;;31.20;56.70;32.40;96664.00;;;;5036481;28;20750;-87
2022/06/16 11:01:11;;;;;;;2.67;2.47;;;31.40;57.10;32.50;96664.00;;;;5028985;28;20223;-87
2022/06/16 11:03:46;;;;;;;2.65;2.45;;;31.50;56.40;32.60;96665.00;;;;5032153;28;20193;-87
2022/06/16 11:06:16;;;;;;;2.90;2.20;;;31.60;55.90;32.70;96657.00;;;;5034746;28;20274;-86
2022/06/16 11:08:48;;;;;;;3.58;2.40;;;31.60;55.50;32.70;96658.00;;;;5036548;28;20216;-87
2022/06/16 11:11:31;;;;;;;2.45;2.25;;;31.60;55.10;32.60;96658.00;;;;5035462;28;20335;-87
2022/06/16 11:14:03;;;;;;;2.20;2.00;;;31.60;54.70;32.60;96656.00;;;;5032022;28;20189;-87
2022/06/16 11:16:37;;;;;;;2.08;1.98;;;31.60;55.10;32.50;96664.00;;;;5038810;28;20657;-86
2022/06/16 11:19:11;;;;;;;2.03;1.85;;;31.50;54.60;32.40;96652.00;;;;5051264;28;20185;-86
2022/06/16 11:21:49;;;;;;;2.55;1.77;;;31.50;53.40;32.30;96657.00;;;;5043938;28;20270;-86
2022/06/16 11:24:29;;;;;;;1.70;1.27;;;31.40;51.80;32.20;96650.00;;;;5033478;28;20246;-86
2022/06/16 11:27:10;;;;;;;1.60;1.30;;;31.30;50.50;32.10;96648.00;;;;5034913;28;20213;-87
2022/06/16 11:29:39;;;;;;;1.80;1.70;;;31.30;50.10;32.10;96649.00;;;;5035019;28;20201;-86
2022/06/16 11:32:17;;;;;;;2.58;1.42;;;31.20;49.80;32.00;96653.00;;;;5033004;28;20205;-87
2022/06/16 11:34:46;;;;;;;1.50;1.40;;;31.10;48.80;31.90;96651.00;;;;5035661;28;20197;-86
2022/06/16 11:37:49;;;;;;;1.70;1.60;;;31.10;50.30;31.80;96649.00;;;;5034481;28;20255;-86